sensor_id;sensor_type;location;lat;lon;timestamp;temperature;humidity
38854;DHT22;24606;51.992;4.198;2023-04-01T00:02:37;9.60;99.90
38854;DHT22;24606;51.992;4.198;2023-04-01T00:07:40;9.40;99.90
38854;DHT22;24606;51.992;4.198;2023-04-01T00:12:42;9.20;99.90
38854;DHT22;24606;51.992;4.198;2023-04-01T00:17:44;9.00;99.90
38854;DHT22;24606;51.992;4.198;2023-04-01T00:22:47;9.00;99.90
38854;DHT22;24606;51.992;4.198;2023-04-01T00:27:49;9.30;99.90
38854;DHT22;24606;51.992;4.198;2023-04-01T00:32:51;9.20;99.90
38854;DHT22;24606;51.992;4.198;2023-04-01T00:37:55;9.30;99.90
38854;DHT22;24606;51.992;4.198;2023-04-01T00:42:57;9.20;99.90
38854;DHT22;24606;51.992;4.198;2023-04-01T00:48:03;9.20;99.90
38854;DHT22;24606;51.992;4.198;2023-04-01T00:53:07;9.30;99.90
38854;DHT22;24606;51.992;4.198;2023-04-01T00:58:14;9.00;99.90
38854;DHT22;24606;51.992;4.198;2023-04-01T01:03:17;9.40;99.90
38854;DHT22;24606;51.992;4.198;2023-04-01T01:08:28;9.20;99.90
38854;DHT22;24606;51.992;4.198;2023-04-01T01:13:38;9.10;99.90
38854;DHT22;24606;51.992;4.198;2023-04-01T01:18:48;9.20;99.90
38854;DHT22;24606;51.992;4.198;2023-04-01T01:24:10;9.60;99.90
38854;DHT22;24606;51.992;4.198;2023-04-01T01:34:45;9.30;99.90
38854;DHT22;24606;51.992;4.198;2023-04-01T01:39:55;9.20;99.90
38854;DHT22;24606;51.992;4.198;2023-04-01T01:44:59;9.20;99.90
38854;DHT22;24606;51.992;4.198;2023-04-01T01:50:02;8.90;99.90
38854;DHT22;24606;51.992;4.198;2023-04-01T01:55:26;9.20;99.90
38854;DHT22;24606;51.992;4.198;2023-04-01T02:00:28;9.20;99.90
38854;DHT22;24606;51.992;4.198;2023-04-01T02:05:31;9.50;99.90
38854;DHT22;24606;51.992;4.198;2023-04-01T02:10:39;9.30;99.90
38854;DHT22;24606;51.992;4.198;2023-04-01T02:15:45;9.50;99.90
38854;DHT22;24606;51.992;4.198;2023-04-01T02:20:49;9.50;99.90
38854;DHT22;24606;51.992;4.198;2023-04-01T02:25:53;9.10;99.90
38854;DHT22;24606;51.992;4.198;2023-04-01T02:30:57;9.40;99.90
38854;DHT22;24606;51.992;4.198;2023-04-01T02:36:00;9.20;99.90
38854;DHT22;24606;51.992;4.198;2023-04-01T02:41:04;9.30;99.90
38854;DHT22;24606;51.992;4.198;2023-04-01T02:46:06;9.30;99.90
38854;DHT22;24606;51.992;4.198;2023-04-01T02:51:09;9.60;99.90
38854;DHT22;24606;51.992;4.198;2023-04-01T02:56:12;9.50;99.90
38854;DHT22;24606;51.992;4.198;2023-04-01T03:01:14;9.30;99.90
38854;DHT22;24606;51.992;4.198;2023-04-01T03:06:16;9.30;99.90
38854;DHT22;24606;51.992;4.198;2023-04-01T03:11:20;9.60;99.90
38854;DHT22;24606;51.992;4.198;2023-04-01T03:16:22;9.50;99.90
38854;DHT22;24606;51.992;4.198;2023-04-01T03:21:24;9.70;99.90
38854;DHT22;24606;51.992;4.198;2023-04-01T03:26:27;9.40;99.90
38854;DHT22;24606;51.992;4.198;2023-04-01T03:31:29;9.40;99.90
38854;DHT22;24606;51.992;4.198;2023-04-01T03:36:31;9.60;99.90
38854;DHT22;24606;51.992;4.198;2023-04-01T03:41:35;9.50;99.90
38854;DHT22;24606;51.992;4.198;2023-04-01T03:46:38;9.40;99.90
38854;DHT22;24606;51.992;4.198;2023-04-01T03:51:41;9.80;99.90
38854;DHT22;24606;51.992;4.198;2023-04-01T03:56:45;9.60;99.90
38854;DHT22;24606;51.992;4.198;2023-04-01T04:01:47;9.30;99.90
38854;DHT22;24606;51.992;4.198;2023-04-01T04:06:49;9.90;99.90
38854;DHT22;24606;51.992;4.198;2023-04-01T04:11:52;10.20;99.90
38854;DHT22;24606;51.992;4.198;2023-04-01T04:16:54;9.70;99.90
38854;DHT22;24606;51.992;4.198;2023-04-01T04:21:56;9.90;99.90
38854;DHT22;24606;51.992;4.198;2023-04-01T04:26:59;10.30;99.90
38854;DHT22;24606;51.992;4.198;2023-04-01T04:32:01;10.10;99.90
38854;DHT22;24606;51.992;4.198;2023-04-01T04:37:03;9.80;99.90
38854;DHT22;24606;51.992;4.198;2023-04-01T04:42:06;9.60;99.90
38854;DHT22;24606;51.992;4.198;2023-04-01T04:47:08;9.90;99.90
38854;DHT22;24606;51.992;4.198;2023-04-01T04:52:10;9.60;99.90
38854;DHT22;24606;51.992;4.198;2023-04-01T04:57:14;9.50;99.90
38854;DHT22;24606;51.992;4.198;2023-04-01T05:02:16;9.40;99.90
38854;DHT22;24606;51.992;4.198;2023-04-01T05:07:18;9.40;99.90
38854;DHT22;24606;51.992;4.198;2023-04-01T05:12:21;9.40;99.90
38854;DHT22;24606;51.992;4.198;2023-04-01T05:17:23;9.50;99.90
38854;DHT22;24606;51.992;4.198;2023-04-01T05:22:25;9.80;99.90
38854;DHT22;24606;51.992;4.198;2023-04-01T05:27:29;10.70;99.90
38854;DHT22;24606;51.992;4.198;2023-04-01T05:32:31;9.80;99.90
38854;DHT22;24606;51.992;4.198;2023-04-01T05:37:33;10.40;99.90
38854;DHT22;24606;51.992;4.198;2023-04-01T05:42:37;10.20;99.90
38854;DHT22;24606;51.992;4.198;2023-04-01T05:47:38;11.00;99.90
38854;DHT22;24606;51.992;4.198;2023-04-01T05:52:40;10.90;99.90
38854;DHT22;24606;51.992;4.198;2023-04-01T05:57:44;10.70;99.90
38854;DHT22;24606;51.992;4.198;2023-04-01T06:15:36;11.10;99.90
38854;DHT22;24606;51.992;4.198;2023-04-01T06:20:42;11.90;99.90
38854;DHT22;24606;51.992;4.198;2023-04-01T06:26:02;11.30;99.90
38854;DHT22;24606;51.992;4.198;2023-04-01T06:31:12;11.90;99.90
38854;DHT22;24606;51.992;4.198;2023-04-01T06:36:32;12.10;99.90
38854;DHT22;24606;51.992;4.198;2023-04-01T06:41:55;11.70;99.90
38854;DHT22;24606;51.992;4.198;2023-04-01T06:47:14;12.40;99.90
38854;DHT22;24606;51.992;4.198;2023-04-01T06:52:23;12.30;99.90
38854;DHT22;24606;51.992;4.198;2023-04-01T06:57:31;11.40;99.90
38854;DHT22;24606;51.992;4.198;2023-04-01T07:02:39;11.40;99.90
38854;DHT22;24606;51.992;4.198;2023-04-01T07:07:45;11.00;99.90
38854;DHT22;24606;51.992;4.198;2023-04-01T07:12:51;11.00;99.90
38854;DHT22;24606;51.992;4.198;2023-04-01T07:18:00;10.30;99.90
38854;DHT22;24606;51.992;4.198;2023-04-01T07:23:06;10.90;99.90
38854;DHT22;24606;51.992;4.198;2023-04-01T07:28:12;10.80;99.90
38854;DHT22;24606;51.992;4.198;2023-04-01T07:33:19;11.20;99.90
38854;DHT22;24606;51.992;4.198;2023-04-01T07:38:27;11.00;99.90
38854;DHT22;24606;51.992;4.198;2023-04-01T07:43:44;11.30;99.90
38854;DHT22;24606;51.992;4.198;2023-04-01T07:48:57;11.80;99.90
38854;DHT22;24606;51.992;4.198;2023-04-01T07:54:06;11.40;99.90
38854;DHT22;24606;51.992;4.198;2023-04-01T07:59:14;11.20;99.90
38854;DHT22;24606;51.992;4.198;2023-04-01T08:04:41;11.40;99.90
38854;DHT22;24606;51.992;4.198;2023-04-01T08:09:53;11.90;99.90
38854;DHT22;24606;51.992;4.198;2023-04-01T08:15:08;11.20;99.90
38854;DHT22;24606;51.992;4.198;2023-04-01T08:20:23;11.60;99.90
38854;DHT22;24606;51.992;4.198;2023-04-01T08:25:28;11.80;99.90
38854;DHT22;24606;51.992;4.198;2023-04-01T08:30:38;13.10;99.90
38854;DHT22;24606;51.992;4.198;2023-04-01T08:35:47;15.00;99.90
38854;DHT22;24606;51.992;4.198;2023-04-01T08:40:59;13.00;99.90
38854;DHT22;24606;51.992;4.198;2023-04-01T08:46:19;12.20;99.90
38854;DHT22;24606;51.992;4.198;2023-04-01T08:51:54;12.40;99.90
38854;DHT22;24606;51.992;4.198;2023-04-01T08:57:08;12.10;99.90
38854;DHT22;24606;51.992;4.198;2023-04-01T09:02:39;12.10;99.90
38854;DHT22;24606;51.992;4.198;2023-04-01T09:07:54;12.70;99.90
38854;DHT22;24606;51.992;4.198;2023-04-01T09:13:29;12.10;99.90
38854;DHT22;24606;51.992;4.198;2023-04-01T09:18:56;12.40;99.90
38854;DHT22;24606;51.992;4.198;2023-04-01T09:24:15;12.20;99.90
38854;DHT22;24606;51.992;4.198;2023-04-01T09:29:41;12.30;99.90
38854;DHT22;24606;51.992;4.198;2023-04-01T09:34:51;11.40;99.90
38854;DHT22;24606;51.992;4.198;2023-04-01T09:40:00;10.60;99.90
38854;DHT22;24606;51.992;4.198;2023-04-01T09:45:05;10.20;99.90
38854;DHT22;24606;51.992;4.198;2023-04-01T10:01:09;10.50;99.90
38854;DHT22;24606;51.992;4.198;2023-04-01T10:22:28;11.20;99.90
38854;DHT22;24606;51.992;4.198;2023-04-01T10:27:38;11.40;99.90
38854;DHT22;24606;51.992;4.198;2023-04-01T10:38:18;11.10;99.90
38854;DHT22;24606;51.992;4.198;2023-04-01T10:54:13;10.60;99.90
38854;DHT22;24606;51.992;4.198;2023-04-01T11:04:51;11.10;99.90
38854;DHT22;24606;51.992;4.198;2023-04-01T11:10:11;11.80;99.90
38854;DHT22;24606;51.992;4.198;2023-04-01T11:26:16;12.00;99.90
38854;DHT22;24606;51.992;4.198;2023-04-01T11:31:35;12.10;99.90
38854;DHT22;24606;51.992;4.198;2023-04-01T11:36:40;11.90;99.90
38854;DHT22;24606;51.992;4.198;2023-04-01T11:41:49;11.60;99.90
38854;DHT22;24606;51.992;4.198;2023-04-01T11:52:15;12.40;99.90
38854;DHT22;24606;51.992;4.198;2023-04-01T11:57:32;12.00;99.90
38854;DHT22;24606;51.992;4.198;2023-04-01T12:02:40;11.40;99.90
38854;DHT22;24606;51.992;4.198;2023-04-01T12:13:23;12.80;99.90
38854;DHT22;24606;51.992;4.198;2023-04-01T12:18:28;12.40;99.90
38854;DHT22;24606;51.992;4.198;2023-04-01T12:23:40;12.70;99.90
38854;DHT22;24606;51.992;4.198;2023-04-01T12:28:53;12.40;99.90
38854;DHT22;24606;51.992;4.198;2023-04-01T12:39:33;12.30;99.90
38854;DHT22;24606;51.992;4.198;2023-04-01T12:44:43;11.30;99.90
38854;DHT22;24606;51.992;4.198;2023-04-01T12:49:56;12.20;99.90
38854;DHT22;24606;51.992;4.198;2023-04-01T13:00:33;12.30;99.90
38854;DHT22;24606;51.992;4.198;2023-04-01T13:05:43;13.10;99.90
38854;DHT22;24606;51.992;4.198;2023-04-01T13:10:56;13.30;99.90
38854;DHT22;24606;51.992;4.198;2023-04-01T13:16:02;13.80;99.90
38854;DHT22;24606;51.992;4.198;2023-04-01T13:21:08;14.70;99.90
38854;DHT22;24606;51.992;4.198;2023-04-01T13:26:17;13.10;99.90
38854;DHT22;24606;51.992;4.198;2023-04-01T13:31:25;13.50;99.90
38854;DHT22;24606;51.992;4.198;2023-04-01T13:36:29;14.80;99.90
38854;DHT22;24606;51.992;4.198;2023-04-01T13:41:38;13.50;99.90
38854;DHT22;24606;51.992;4.198;2023-04-01T13:46:54;13.60;99.90
38854;DHT22;24606;51.992;4.198;2023-04-01T13:52:21;13.60;99.90
38854;DHT22;24606;51.992;4.198;2023-04-01T13:57:31;14.10;99.90
38854;DHT22;24606;51.992;4.198;2023-04-01T14:02:51;15.00;99.90
38854;DHT22;24606;51.992;4.198;2023-04-01T14:08:00;14.70;99.90
38854;DHT22;24606;51.992;4.198;2023-04-01T14:13:04;15.50;99.90
38854;DHT22;24606;51.992;4.198;2023-04-01T14:18:15;15.70;99.90
38854;DHT22;24606;51.992;4.198;2023-04-01T14:23:29;16.50;99.90
38854;DHT22;24606;51.992;4.198;2023-04-01T14:28:36;16.20;99.90
38854;DHT22;24606;51.992;4.198;2023-04-01T14:33:45;14.00;99.90
38854;DHT22;24606;51.992;4.198;2023-04-01T14:38:51;14.50;99.90
38854;DHT22;24606;51.992;4.198;2023-04-01T14:44:04;15.40;99.90
38854;DHT22;24606;51.992;4.198;2023-04-01T14:49:15;17.00;99.90
38854;DHT22;24606;51.992;4.198;2023-04-01T14:54:19;17.30;99.90
38854;DHT22;24606;51.992;4.198;2023-04-01T14:59:27;17.00;99.90
38854;DHT22;24606;51.992;4.198;2023-04-01T15:09:51;14.90;99.90
38854;DHT22;24606;51.992;4.198;2023-04-01T15:14:57;17.60;99.90
38854;DHT22;24606;51.992;4.198;2023-04-01T15:20:07;17.50;99.90
38854;DHT22;24606;51.992;4.198;2023-04-01T15:25:21;16.40;99.90
38854;DHT22;24606;51.992;4.198;2023-04-01T15:30:29;15.00;99.90
38854;DHT22;24606;51.992;4.198;2023-04-01T15:35:36;15.80;99.90
38854;DHT22;24606;51.992;4.198;2023-04-01T15:40:43;17.00;99.90
38854;DHT22;24606;51.992;4.198;2023-04-01T15:45:49;17.10;99.90
38854;DHT22;24606;51.992;4.198;2023-04-01T15:50:54;15.90;99.90
38854;DHT22;24606;51.992;4.198;2023-04-01T15:55:59;17.40;99.90
38854;DHT22;24606;51.992;4.198;2023-04-01T16:01:04;16.80;99.90
38854;DHT22;24606;51.992;4.198;2023-04-01T16:06:11;17.30;99.90
38854;DHT22;24606;51.992;4.198;2023-04-01T16:11:20;16.60;99.90
38854;DHT22;24606;51.992;4.198;2023-04-01T16:16:29;17.00;99.90
38854;DHT22;24606;51.992;4.198;2023-04-01T16:21:36;17.50;99.90
38854;DHT22;24606;51.992;4.198;2023-04-01T16:26:43;17.40;99.60
38854;DHT22;24606;51.992;4.198;2023-04-01T16:31:46;17.20;99.90
38854;DHT22;24606;51.992;4.198;2023-04-01T16:36:51;17.80;99.90
38854;DHT22;24606;51.992;4.198;2023-04-01T16:41:57;18.20;98.80
38854;DHT22;24606;51.992;4.198;2023-04-01T16:47:10;17.40;99.90
38854;DHT22;24606;51.992;4.198;2023-04-01T16:52:15;17.90;99.80
38854;DHT22;24606;51.992;4.198;2023-04-01T16:57:21;18.00;99.90
38854;DHT22;24606;51.992;4.198;2023-04-01T17:02:25;17.70;99.90
38854;DHT22;24606;51.992;4.198;2023-04-01T17:07:30;18.20;99.40
38854;DHT22;24606;51.992;4.198;2023-04-01T17:12:39;18.40;98.70
38854;DHT22;24606;51.992;4.198;2023-04-01T17:17:44;17.90;99.90
38854;DHT22;24606;51.992;4.198;2023-04-01T17:22:49;18.20;99.90
38854;DHT22;24606;51.992;4.198;2023-04-01T17:27:55;18.20;99.20
38854;DHT22;24606;51.992;4.198;2023-04-01T17:33:03;17.90;99.90
38854;DHT22;24606;51.992;4.198;2023-04-01T17:38:10;17.90;97.20
38854;DHT22;24606;51.992;4.198;2023-04-01T17:43:18;17.60;99.90
38854;DHT22;24606;51.992;4.198;2023-04-01T17:48:24;18.20;99.90
38854;DHT22;24606;51.992;4.198;2023-04-01T17:53:33;17.90;99.90
38854;DHT22;24606;51.992;4.198;2023-04-01T17:58:42;18.00;99.90
38854;DHT22;24606;51.992;4.198;2023-04-01T18:03:52;17.50;99.80
38854;DHT22;24606;51.992;4.198;2023-04-01T18:08:57;16.10;99.90
38854;DHT22;24606;51.992;4.198;2023-04-01T18:14:03;15.50;99.90
38854;DHT22;24606;51.992;4.198;2023-04-01T18:19:15;15.90;99.90
38854;DHT22;24606;51.992;4.198;2023-04-01T18:24:22;18.10;99.90
38854;DHT22;24606;51.992;4.198;2023-04-01T18:29:27;18.40;98.50
38854;DHT22;24606;51.992;4.198;2023-04-01T18:34:37;16.10;99.90
38854;DHT22;24606;51.992;4.198;2023-04-01T18:39:40;15.70;99.90
38854;DHT22;24606;51.992;4.198;2023-04-01T18:44:45;17.40;99.90
38854;DHT22;24606;51.992;4.198;2023-04-01T18:49:48;17.30;99.90
38854;DHT22;24606;51.992;4.198;2023-04-01T19:00:13;17.60;99.90
38854;DHT22;24606;51.992;4.198;2023-04-01T19:05:16;17.90;99.70
38854;DHT22;24606;51.992;4.198;2023-04-01T19:10:23;17.90;99.90
38854;DHT22;24606;51.992;4.198;2023-04-01T19:15:31;17.80;99.90
38854;DHT22;24606;51.992;4.198;2023-04-01T19:20:37;17.70;99.90
38854;DHT22;24606;51.992;4.198;2023-04-01T19:25:40;15.70;99.90
38854;DHT22;24606;51.992;4.198;2023-04-01T19:30:49;15.60;99.90
38854;DHT22;24606;51.992;4.198;2023-04-01T19:35:52;15.00;99.90
38854;DHT22;24606;51.992;4.198;2023-04-01T19:40:57;14.90;99.90
38854;DHT22;24606;51.992;4.198;2023-04-01T19:46:02;14.60;99.90
38854;DHT22;24606;51.992;4.198;2023-04-01T19:51:09;13.90;99.90
38854;DHT22;24606;51.992;4.198;2023-04-01T19:56:14;16.40;99.90
38854;DHT22;24606;51.992;4.198;2023-04-01T20:01:20;17.20;99.90
38854;DHT22;24606;51.992;4.198;2023-04-01T20:06:27;17.20;99.90
38854;DHT22;24606;51.992;4.198;2023-04-01T20:11:33;17.60;99.90
38854;DHT22;24606;51.992;4.198;2023-04-01T20:16:48;17.70;99.90
38854;DHT22;24606;51.992;4.198;2023-04-01T20:21:50;17.90;97.00
38854;DHT22;24606;51.992;4.198;2023-04-01T20:26:54;17.90;99.40
38854;DHT22;24606;51.992;4.198;2023-04-01T20:32:05;17.90;99.30
38854;DHT22;24606;51.992;4.198;2023-04-01T20:37:15;17.70;99.70
38854;DHT22;24606;51.992;4.198;2023-04-01T20:42:27;17.70;99.90
38854;DHT22;24606;51.992;4.198;2023-04-01T20:47:35;17.80;99.60
38854;DHT22;24606;51.992;4.198;2023-04-01T20:52:40;17.80;99.50
38854;DHT22;24606;51.992;4.198;2023-04-01T20:57:42;17.70;99.80
38854;DHT22;24606;51.992;4.198;2023-04-01T21:02:50;17.80;99.80
38854;DHT22;24606;51.992;4.198;2023-04-01T21:07:54;16.80;99.90
38854;DHT22;24606;51.992;4.198;2023-04-01T21:13:00;17.70;99.90
38854;DHT22;24606;51.992;4.198;2023-04-01T21:18:13;17.80;99.60
38854;DHT22;24606;51.992;4.198;2023-04-01T21:23:21;18.00;98.50
38854;DHT22;24606;51.992;4.198;2023-04-01T21:28:35;17.60;99.60
38854;DHT22;24606;51.992;4.198;2023-04-01T21:33:48;17.40;99.90
38854;DHT22;24606;51.992;4.198;2023-04-01T21:38:56;17.80;98.80
38854;DHT22;24606;51.992;4.198;2023-04-01T21:44:07;17.60;99.90
38854;DHT22;24606;51.992;4.198;2023-04-01T21:49:23;17.30;98.10
38854;DHT22;24606;51.992;4.198;2023-04-01T21:54:32;17.30;99.90
38854;DHT22;24606;51.992;4.198;2023-04-01T22:04:57;17.90;98.90
38854;DHT22;24606;51.992;4.198;2023-04-01T22:10:05;17.80;99.40
38854;DHT22;24606;51.992;4.198;2023-04-01T22:15:13;17.70;98.60
38854;DHT22;24606;51.992;4.198;2023-04-01T22:20:23;17.90;98.70
38854;DHT22;24606;51.992;4.198;2023-04-01T22:25:29;17.40;99.10
38854;DHT22;24606;51.992;4.198;2023-04-01T22:30:33;17.70;99.50
38854;DHT22;24606;51.992;4.198;2023-04-01T22:35:38;17.80;99.00
38854;DHT22;24606;51.992;4.198;2023-04-01T22:40:42;17.10;99.90
38854;DHT22;24606;51.992;4.198;2023-04-01T22:45:53;17.90;98.80
38854;DHT22;24606;51.992;4.198;2023-04-01T22:51:02;17.60;99.50
38854;DHT22;24606;51.992;4.198;2023-04-01T22:56:07;17.60;99.60
38854;DHT22;24606;51.992;4.198;2023-04-01T23:01:12;17.90;98.30
38854;DHT22;24606;51.992;4.198;2023-04-01T23:06:17;17.60;98.90
38854;DHT22;24606;51.992;4.198;2023-04-01T23:11:20;17.70;99.00
38854;DHT22;24606;51.992;4.198;2023-04-01T23:16:28;17.20;99.90
38854;DHT22;24606;51.992;4.198;2023-04-01T23:21:34;17.70;99.50
38854;DHT22;24606;51.992;4.198;2023-04-01T23:26:38;17.70;99.10
38854;DHT22;24606;51.992;4.198;2023-04-01T23:31:41;17.80;99.10
38854;DHT22;24606;51.992;4.198;2023-04-01T23:36:45;17.80;98.90
38854;DHT22;24606;51.992;4.198;2023-04-01T23:41:47;17.90;98.60
38854;DHT22;24606;51.992;4.198;2023-04-01T23:46:50;17.00;99.90
38854;DHT22;24606;51.992;4.198;2023-04-01T23:51:55;17.80;99.30
38854;DHT22;24606;51.992;4.198;2023-04-01T23:56:58;17.50;99.90
